Terminal Aerodrome Forecast
Issued by NWS

Home | Current Version | Previous Version | Text Only | Print | Product List | Glossary On
Versions: 1 2 3 4 5 6 7 8 9 10 11 12 13 14 15 16 17 18 19
000
FTUS41 KGYX 030521
TAFAUG
TAF
KAUG 030521Z 0306/0406 35007KT P6SM BKN006 OVC015
     FM031300 35004KT P6SM BKN015 OVC050
     FM031500 33003KT P6SM BKN050=

USA.gov is the U.S. government's official web portal to all federal, state and local government web resources and services.